Rogersville, TN (37857)

10:35 PM EDT on May 27, 2017 (GMT -0400)
Whispering Mountain | | Change Station
Active Advisory: Severe Thunderstorm Watch

Elev 1100 ft 36.43 °N, 83.00 °W | Updated 3 seconds ago

Thunderstorm
Thunderstorm
69.4 °F
Feels Like 69.4 °F
N
1.8
Wind Variable Wind from WSW
Gusts 7.4 mph

Today
High -- | Low -- °F
--% Chance of Precip.
Yesterday
High -- | Low -- °F
Precip. -- in
Pressure 29.97 in
Visibility 4.0 miles
Clouds Few 200 ft
Mostly Cloudy 4500 ft
Overcast 6000 ft
Dew Point 64 °F
Humidity 84%
Rainfall 0.20 in
Snow Depth Not available.
6:17 AM 8:41 PM
Waxing Crescent, 8% visible
METAR K0VG 280215Z AUTO 08006KT 4SM -TSRA FEW002 BKN045 OVC060 18/17 A2997 RMK AO2 P0017
Pressure 29.97 in
Visibility 4.0 miles
Clouds Few 200 ft
Mostly Cloudy 4500 ft
Overcast 6000 ft
Dew Point 64 °F
Humidity 84%
Rainfall 0.20 in
Snow Depth Not available.
6:17 AM 8:41 PM
Waxing Crescent, 8% visible
METAR K0VG 280215Z AUTO 08006KT 4SM -TSRA FEW002 BKN045 OVC060 18/17 A2997 RMK AO2 P0017

Get Your Daily Forecast Email!

Thanks for signing up!

Be on the lookout for a verification email in your inbox.

You'll start receiving severe weather alerts in your inbox..

×

10-Day Weather Forecast

Almanac

Astronomy

May. 27, 2017 Rise Set
Actual Time
Civil Twilight
Nautical Twilight
Astronomical Twilight
Moon
Length of Visible Light
Length of Day
Tomorrow will be .
, % of the Moon is Illuminated

Today's Extremes

State Highs State Lows

Community

WunderPhotos

Category 6

Welcome to Category 6. This is the collective home for Weather Underground's featured writeups by Dr. Jeff Masters (right), Bob Henson (left), Chris Burt, and other regular contributors.

Nearby

Air Quality

  Air Quality AQ Index Pollutant
Not available.

Snow Depth

Station Depth Elevation

Earthquake Activity

City Distance Mag. Time & Date
Minimum magnitude displayed is 2.5.

Coastal Water Temperatures

Place Temperature

Stations

Nearby Weather Stations

Station Location Temp. Windchill Dew Point Humidity Wind Precip. Elev Updated Type
                   

Watches & Warnings

Severe Thunderstorm Watch
Issued: 10:24 PM EDT May. 27, 2017 – National Weather Service

Severe Thunderstorm Watch 282 remains in effect until 200 am EDT

TN
. Tennessee counties included are

Anderson Bledsoe Blount
Bradley Campbell Carter
Claiborne Cocke Grainger
Greene Hamblen Hamilton
Hancock Hawkins Jefferson
Johnson Knox Loudon
McMinn Marion Meigs
Monroe Morgan Polk
Rhea Roane Scott
Sequatchie Sevier Sullivan
Unicoi Union Washington